Time;durP1;ratioP1;P1;durP2;ratioP2;P2;SDS_P1;SDS_P2;PMS_P1;PMS_P2;Temp;Humidity;BMP_temperature;BMP_pressure;BME280_temperature;BME280_humidity;BME280_pressure;Samples;Min_cycle;Max_cycle;Signal;HPM_P1;HPM_P2
2023/03/31 00:00:27;;;;;;;6.30;2.50;;;11.30;99.90;;;;;;4991325;28;20218;-73
2023/03/31 00:02:53;;;;;;;5.50;2.20;;;11.40;99.90;;;;;;4992148;28;20259;-73
2023/03/31 00:05:20;;;;;;;7.60;3.67;;;11.40;99.90;;;;;;4990652;28;20454;-73
2023/03/31 00:07:47;;;;;;;4.50;2.50;;;11.30;99.90;;;;;;4983566;28;20446;-73
2023/03/31 00:10:13;;;;;;;6.60;2.30;;;11.30;99.90;;;;;;4991173;28;20474;-73
2023/03/31 00:12:39;;;;;;;4.00;2.50;;;11.30;99.90;;;;;;4992155;28;20850;-72
2023/03/31 00:15:05;;;;;;;7.50;2.93;;;11.30;99.90;;;;;;4992238;28;20434;-73
2023/03/31 00:17:32;;;;;;;7.17;2.63;;;11.30;99.90;;;;;;4984658;28;20180;-73
2023/03/31 00:19:59;;;;;;;3.50;2.67;;;11.30;99.90;;;;;;4990343;28;20549;-73
2023/03/31 00:22:26;;;;;;;8.90;3.13;;;11.30;99.90;;;;;;4992279;28;20418;-73
2023/03/31 00:24:52;;;;;;;6.73;2.67;;;11.30;99.90;;;;;;4991940;28;20442;-73
2023/03/31 00:27:17;;;;;;;3.37;2.33;;;11.30;99.90;;;;;;4992121;28;20469;-72
2023/03/31 00:29:44;;;;;;;6.93;2.40;;;11.30;99.90;;;;;;4991212;28;20195;-74
2023/03/31 00:32:10;;;;;;;4.93;3.00;;;11.30;99.90;;;;;;4983292;28;20179;-72
2023/03/31 00:34:36;;;;;;;5.27;2.53;;;11.30;99.90;;;;;;4991909;28;20435;-73
2023/03/31 00:37:02;;;;;;;6.00;2.93;;;11.30;99.90;;;;;;4994460;28;20561;-73
2023/03/31 00:39:30;;;;;;;9.40;2.80;;;11.30;99.90;;;;;;4994722;28;20230;-73
2023/03/31 00:41:57;;;;;;;5.07;3.03;;;11.30;99.90;;;;;;4995339;28;20462;-73
2023/03/31 00:44:28;;;;;;;5.40;2.63;;;11.40;99.90;;;;;;4996056;28;20948;-73
2023/03/31 00:47:02;;;;;;;5.80;2.27;;;11.40;99.90;;;;;;4995568;28;20955;-73
2023/03/31 00:49:39;;;;;;;5.47;2.70;;;11.40;99.90;;;;;;4983008;28;20455;-73
2023/03/31 00:52:21;;;;;;;3.30;2.00;;;11.40;99.90;;;;;;4995652;28;20434;-73
2023/03/31 00:55:00;;;;;;;6.70;2.33;;;11.30;99.90;;;;;;4995614;28;20427;-73
2023/03/31 00:57:27;;;;;;;4.80;2.97;;;11.30;99.90;;;;;;4995568;28;20426;-73
2023/03/31 01:00:00;;;;;;;9.57;2.83;;;11.30;99.90;;;;;;4994652;28;20462;-73
2023/03/31 01:02:27;;;;;;;5.83;2.80;;;11.30;99.90;;;;;;4995340;28;20422;-73
2023/03/31 01:04:58;;;;;;;5.30;2.63;;;11.30;99.90;;;;;;4992383;28;20441;-73
2023/03/31 01:07:44;;;;;;;5.67;2.93;;;11.30;99.90;;;;;;4995111;28;20462;-73
2023/03/31 01:10:11;;;;;;;3.83;2.27;;;11.30;99.90;;;;;;4994194;28;20903;-73
2023/03/31 01:12:41;;;;;;;5.73;2.87;;;11.40;99.90;;;;;;4994871;28;20434;-73
2023/03/31 01:15:08;;;;;;;7.47;3.40;;;11.40;99.90;;;;;;4994703;28;20526;-73
2023/03/31 01:17:35;;;;;;;6.87;3.40;;;11.40;99.90;;;;;;4985779;28;20578;-73
2023/03/31 01:20:29;;;;;;;5.00;2.60;;;11.50;99.90;;;;;;4993721;28;20474;-73
2023/03/31 01:23:24;;;;;;;5.47;2.70;;;11.50;99.90;;;;;;4995170;28;20427;-73
2023/03/31 01:26:14;;;;;;;7.63;2.70;;;11.50;99.90;;;;;;4994540;28;20489;-73
2023/03/31 01:28:46;;;;;;;5.40;2.43;;;11.50;99.90;;;;;;4994121;28;20431;-73
2023/03/31 01:31:36;;;;;;;5.40;3.10;;;11.50;99.90;;;;;;4992412;28;20454;-73
2023/03/31 01:34:29;;;;;;;6.33;2.70;;;11.50;99.90;;;;;;4994625;28;20441;-73
2023/03/31 01:37:26;;;;;;;4.87;2.70;;;11.40;99.90;;;;;;4994799;28;20430;-73
2023/03/31 01:40:16;;;;;;;5.10;2.87;;;11.40;99.90;;;;;;4993478;28;20501;-73
2023/03/31 01:42:52;;;;;;;6.83;2.60;;;11.40;99.90;;;;;;4994448;28;20462;-73
2023/03/31 01:45:52;;;;;;;6.37;2.80;;;11.40;99.90;;;;;;4993047;28;20509;-72
2023/03/31 01:48:22;;;;;;;5.73;2.47;;;11.40;99.90;;;;;;4985708;28;20462;-73
2023/03/31 01:50:57;;;;;;;8.43;3.70;;;11.40;99.90;;;;;;4991794;28;20562;-73
2023/03/31 01:53:45;;;;;;;2.77;2.27;;;11.20;99.90;;;;;;4975351;28;20419;-73
2023/03/31 01:56:18;;;;;;;5.43;2.47;;;11.00;99.90;;;;;;4980012;28;20443;-74
2023/03/31 01:58:57;;;;;;;4.77;3.07;;;10.90;99.90;;;;;;4985042;28;20674;-73
2023/03/31 02:01:40;;;;;;;4.40;2.57;;;10.80;99.90;;;;;;4993890;28;20786;-73
2023/03/31 02:04:15;;;;;;;5.70;2.60;;;10.70;99.90;;;;;;4989253;28;20432;-73
2023/03/31 02:06:48;;;;;;;3.83;2.30;;;10.50;99.90;;;;;;4984861;28;20516;-73
2023/03/31 02:09:17;;;;;;;5.70;2.90;;;10.50;99.90;;;;;;4992445;28;20474;-73
2023/03/31 02:11:44;;;;;;;7.30;3.20;;;10.40;99.90;;;;;;4992518;28;20457;-73
2023/03/31 02:14:13;;;;;;;6.37;3.07;;;10.30;99.90;;;;;;4992997;28;20450;-73
2023/03/31 02:16:46;;;;;;;5.10;3.50;;;10.30;99.90;;;;;;4993566;28;20434;-73
2023/03/31 02:19:17;;;;;;;6.27;3.37;;;10.30;99.90;;;;;;4973823;28;20463;-73
2023/03/31 02:21:49;;;;;;;10.73;3.30;;;10.30;99.90;;;;;;4985310;28;20839;-73
2023/03/31 02:24:17;;;;;;;4.17;2.50;;;10.20;99.90;;;;;;4994012;28;20999;-73
2023/03/31 02:27:03;;;;;;;3.40;2.70;;;10.20;99.90;;;;;;4993942;28;20470;-73
2023/03/31 02:29:29;;;;;;;10.23;3.30;;;10.10;99.90;;;;;;4993156;28;20474;-73
2023/03/31 02:32:05;;;;;;;5.97;2.80;;;10.10;99.90;;;;;;4993788;28;20478;-74
2023/03/31 02:34:30;;;;;;;3.77;2.80;;;10.00;99.90;;;;;;4993216;28;20446;-73
2023/03/31 02:36:56;;;;;;;5.93;2.50;;;10.00;99.90;;;;;;4985546;28;20416;-73
2023/03/31 02:39:29;;;;;;;5.27;2.93;;;10.00;99.90;;;;;;4992840;28;20211;-73
2023/03/31 02:41:56;;;;;;;5.77;2.83;;;9.90;99.90;;;;;;4993628;28;20245;-73
2023/03/31 02:44:22;;;;;;;4.73;3.07;;;10.00;99.90;;;;;;4993343;28;20437;-73
2023/03/31 02:46:49;;;;;;;5.93;3.17;;;10.00;99.90;;;;;;4993451;28;20419;-73
2023/03/31 02:49:17;;;;;;;5.30;2.97;;;9.90;99.90;;;;;;4992860;28;20446;-73
2023/03/31 02:52:21;;;;;;;5.00;3.10;;;9.90;99.90;;;;;;4984156;28;20440;-73
2023/03/31 02:55:15;;;;;;;7.40;3.17;;;10.00;99.90;;;;;;4972966;28;20466;-73
2023/03/31 02:58:04;;;;;;;16.43;3.60;;;9.90;99.90;;;;;;4993185;28;20434;-73
2023/03/31 03:01:14;;;;;;;6.50;3.33;;;9.90;99.90;;;;;;4992089;28;20485;-72
2023/03/31 03:03:42;;;;;;;5.37;3.60;;;9.90;99.90;;;;;;4951965;28;20844;-73
2023/03/31 03:06:21;;;;;;;5.30;3.90;;;9.90;99.90;;;;;;4952287;29;20420;-73
2023/03/31 03:08:54;;;;;;;3.93;2.87;;;9.90;99.90;;;;;;4967614;28;20447;-73
2023/03/31 03:11:27;;;;;;;9.23;3.70;;;9.90;99.90;;;;;;4992688;28;20427;-73
2023/03/31 03:13:52;;;;;;;5.43;3.37;;;9.90;99.90;;;;;;4992758;28;20419;-73
2023/03/31 03:16:27;;;;;;;10.10;3.50;;;9.90;99.90;;;;;;4992657;28;20823;-73
2023/03/31 03:19:01;;;;;;;7.87;3.40;;;9.80;99.90;;;;;;4983973;28;20274;-73
2023/03/31 03:21:28;;;;;;;6.97;3.83;;;9.70;99.90;;;;;;4991407;28;20962;-73
2023/03/31 03:23:53;;;;;;;4.20;3.57;;;9.70;99.90;;;;;;4992069;28;20415;-73
2023/03/31 03:26:23;;;;;;;4.97;3.33;;;9.60;99.90;;;;;;4984671;28;20828;-73
2023/03/31 03:28:49;;;;;;;6.70;2.97;;;9.60;99.90;;;;;;4992306;28;20186;-73
2023/03/31 03:31:15;;;;;;;3.80;3.20;;;9.50;99.90;;;;;;4992690;28;20438;-73
2023/03/31 03:33:41;;;;;;;6.20;3.57;;;9.60;99.90;;;;;;4992845;28;20429;-73
2023/03/31 03:36:07;;;;;;;4.90;3.30;;;9.60;99.90;;;;;;4992758;28;20679;-73
2023/03/31 03:38:33;;;;;;;5.67;3.60;;;9.60;99.90;;;;;;4991778;28;20422;-74
2023/03/31 03:40:58;;;;;;;5.60;3.90;;;9.60;99.90;;;;;;4989053;28;20199;-73
2023/03/31 03:43:24;;;;;;;7.10;3.33;;;9.60;99.90;;;;;;4989720;28;20176;-73
2023/03/31 03:45:50;;;;;;;6.70;3.30;;;9.60;99.90;;;;;;4992314;28;20641;-73
2023/03/31 03:48:16;;;;;;;7.33;3.33;;;9.60;99.90;;;;;;4991720;28;20179;-73
2023/03/31 03:50:43;;;;;;;5.30;3.40;;;9.60;99.90;;;;;;4992516;28;20447;-73
2023/03/31 03:53:09;;;;;;;4.13;3.30;;;9.60;99.90;;;;;;4992616;28;20764;-73
2023/03/31 03:55:34;;;;;;;5.80;4.00;;;9.70;99.90;;;;;;4992438;28;20414;-73
2023/03/31 03:58:00;;;;;;;6.40;3.73;;;9.70;99.90;;;;;;4988331;28;20180;-73
2023/03/31 04:00:25;;;;;;;3.93;3.30;;;9.60;99.90;;;;;;4986657;28;20783;-73
2023/03/31 04:02:51;;;;;;;5.30;3.23;;;9.60;99.90;;;;;;4992615;28;20559;-73
2023/03/31 04:05:16;;;;;;;5.17;3.33;;;9.60;99.90;;;;;;4992462;28;20637;-73
2023/03/31 04:07:42;;;;;;;7.20;3.37;;;9.60;99.90;;;;;;5007451;28;20645;-73
2023/03/31 04:10:08;;;;;;;7.67;4.60;;;9.50;99.90;;;;;;4991540;28;20258;-73
2023/03/31 04:12:34;;;;;;;5.00;3.10;;;9.50;99.90;;;;;;4995677;28;20175;-73
2023/03/31 04:15:00;;;;;;;5.17;3.30;;;9.50;99.90;;;;;;4994525;28;20443;-73
2023/03/31 04:17:32;;;;;;;6.37;3.70;;;9.50;99.90;;;;;;4993588;28;20439;-72
2023/03/31 04:20:00;;;;;;;8.63;3.97;;;9.50;99.90;;;;;;4997473;28;20478;-73
2023/03/31 04:22:28;;;;;;;7.07;4.23;;;9.40;99.90;;;;;;4994038;28;20796;-73
2023/03/31 04:24:57;;;;;;;5.63;3.70;;;9.40;99.90;;;;;;4992665;28;20468;-73
2023/03/31 04:27:26;;;;;;;6.20;5.60;;;9.50;99.90;;;;;;4996181;28;20418;-73
2023/03/31 04:29:53;;;;;;;6.33;4.13;;;9.40;99.90;;;;;;4994027;28;20447;-73
2023/03/31 04:32:20;;;;;;;6.60;4.40;;;9.40;99.90;;;;;;4988715;28;20474;-73
2023/03/31 04:34:46;;;;;;;4.20;3.80;;;9.50;99.90;;;;;;4994552;28;20426;-73
2023/03/31 04:37:12;;;;;;;6.00;4.20;;;9.40;99.90;;;;;;4995333;28;20426;-73
2023/03/31 04:39:38;;;;;;;8.83;5.10;;;9.40;99.90;;;;;;4994818;28;21308;-73
2023/03/31 04:42:03;;;;;;;11.97;4.30;;;9.50;99.90;;;;;;4995625;28;20183;-73
2023/03/31 04:44:29;;;;;;;7.77;4.27;;;9.50;99.90;;;;;;4995815;28;20168;-73
2023/03/31 04:46:55;;;;;;;12.30;5.00;;;9.50;99.90;;;;;;4992767;28;20230;-73
2023/03/31 04:49:21;;;;;;;6.40;4.27;;;9.50;99.90;;;;;;4989090;28;20274;-73
2023/03/31 04:51:47;;;;;;;7.37;4.53;;;9.60;99.90;;;;;;4986588;28;20188;-73
2023/03/31 04:54:12;;;;;;;9.90;4.70;;;9.60;99.90;;;;;;4994791;28;20940;-72
2023/03/31 04:56:38;;;;;;;7.60;4.47;;;9.60;99.90;;;;;;4987205;28;20538;-73
2023/03/31 04:59:04;;;;;;;6.23;4.90;;;9.60;99.90;;;;;;4994763;28;20207;-73
2023/03/31 05:01:34;;;;;;;5.47;4.97;;;9.70;99.90;;;;;;4987879;28;20196;-73
2023/03/31 05:04:00;;;;;;;9.40;5.07;;;9.70;99.90;;;;;;4993405;28;20229;-73
2023/03/31 05:06:26;;;;;;;6.67;5.00;;;9.70;99.90;;;;;;4994538;28;20439;-73
2023/03/31 05:08:51;;;;;;;7.07;4.80;;;9.70;99.90;;;;;;4994208;28;20484;-72
2023/03/31 05:11:17;;;;;;;7.90;5.50;;;9.70;99.90;;;;;;4995490;28;20188;-73
2023/03/31 05:13:42;;;;;;;6.30;5.40;;;9.70;99.90;;;;;;4994209;28;20187;-74
2023/03/31 05:16:13;;;;;;;6.50;5.00;;;9.60;99.90;;;;;;4991193;28;20179;-73
2023/03/31 05:18:39;;;;;;;8.13;5.20;;;9.60;99.90;;;;;;4994364;28;20687;-72
2023/03/31 05:21:16;;;;;;;5.63;5.13;;;9.50;99.90;;;;;;4994976;28;20447;-72
2023/03/31 05:23:42;;;;;;;10.33;5.80;;;9.50;99.90;;;;;;4991093;28;20434;-74
2023/03/31 05:26:08;;;;;;;13.27;6.50;;;9.40;99.90;;;;;;4991722;28;20518;-72
2023/03/31 05:28:34;;;;;;;12.00;6.27;;;9.40;99.90;;;;;;4993108;28;20438;-72
2023/03/31 05:31:04;;;;;;;12.50;7.37;;;9.40;99.90;;;;;;4989569;28;20497;-74
2023/03/31 05:33:30;;;;;;;11.87;6.83;;;9.40;99.90;;;;;;4991739;28;20492;-71
2023/03/31 05:35:58;;;;;;;12.33;7.00;;;9.30;99.90;;;;;;4992696;28;20435;-71
2023/03/31 05:38:27;;;;;;;9.13;7.23;;;9.30;99.90;;;;;;4991465;28;20573;-71
2023/03/31 05:40:53;;;;;;;16.60;8.03;;;9.30;99.90;;;;;;4992479;28;20466;-70
2023/03/31 05:43:19;;;;;;;15.50;7.63;;;9.20;99.90;;;;;;4990955;28;20442;-73
2023/03/31 05:45:44;;;;;;;10.33;6.80;;;9.20;99.90;;;;;;4991853;28;20250;-71
2023/03/31 05:48:10;;;;;;;15.93;8.80;;;9.20;99.90;;;;;;4989872;28;20176;-72
2023/03/31 05:50:35;;;;;;;13.80;8.63;;;9.20;99.90;;;;;;4992988;28;20199;-71
2023/03/31 05:53:01;;;;;;;11.40;9.50;;;9.10;99.90;;;;;;4988012;28;20653;-74
2023/03/31 05:55:26;;;;;;;9.70;8.20;;;9.20;99.90;;;;;;4988100;28;20194;-72
2023/03/31 05:57:53;;;;;;;10.27;7.57;;;9.20;99.90;;;;;;4991390;28;20187;-72
2023/03/31 06:00:19;;;;;;;12.03;8.63;;;9.20;99.90;;;;;;4990832;28;20218;-73
2023/03/31 06:02:44;;;;;;;10.53;8.50;;;9.20;99.90;;;;;;4988382;28;20903;-70
2023/03/31 06:05:10;;;;;;;11.50;8.50;;;9.20;99.90;;;;;;4989699;28;20188;-71
2023/03/31 06:07:35;;;;;;;13.47;8.10;;;9.10;99.90;;;;;;4990956;28;20530;-72
2023/03/31 06:10:01;;;;;;;10.23;8.73;;;9.10;99.90;;;;;;4987561;28;20211;-71
2023/03/31 06:12:27;;;;;;;10.20;7.57;;;9.10;99.90;;;;;;4989154;28;20179;-71
2023/03/31 06:14:52;;;;;;;10.63;7.77;;;9.10;99.90;;;;;;4991612;28;21098;-72
2023/03/31 06:17:18;;;;;;;12.73;8.30;;;9.20;99.90;;;;;;4991910;28;20203;-71
2023/03/31 06:19:43;;;;;;;12.90;8.97;;;9.20;99.90;;;;;;4988031;28;20219;-73
2023/03/31 06:22:09;;;;;;;10.83;8.10;;;9.30;99.90;;;;;;4987412;28;20207;-73
2023/03/31 06:24:34;;;;;;;11.77;7.90;;;9.40;99.90;;;;;;4991365;28;20659;-73
2023/03/31 06:27:00;;;;;;;12.23;7.50;;;9.40;99.90;;;;;;4989740;28;20175;-73
2023/03/31 06:29:26;;;;;;;11.30;8.60;;;9.40;99.90;;;;;;4992928;28;20242;-73
2023/03/31 06:31:52;;;;;;;11.63;8.73;;;9.30;99.90;;;;;;4993417;28;20179;-73
2023/03/31 06:34:18;;;;;;;9.83;7.83;;;9.30;99.90;;;;;;4992729;28;20431;-73
2023/03/31 06:36:43;;;;;;;13.70;8.73;;;9.30;99.90;;;;;;4992413;28;20175;-73
2023/03/31 06:39:09;;;;;;;9.93;8.27;;;9.20;99.90;;;;;;4992220;28;20207;-73
2023/03/31 06:41:34;;;;;;;15.60;9.27;;;9.20;99.90;;;;;;4991277;28;20543;-74
2023/03/31 06:44:00;;;;;;;18.10;9.03;;;9.20;99.90;;;;;;4991020;28;20179;-73
2023/03/31 06:46:25;;;;;;;21.03;9.53;;;9.20;99.90;;;;;;4993451;28;20179;-73
2023/03/31 06:48:51;;;;;;;13.87;9.47;;;9.20;99.90;;;;;;4992415;28;20259;-75
2023/03/31 06:51:17;;;;;;;17.07;10.73;;;9.20;99.90;;;;;;4992132;28;20187;-74
2023/03/31 06:53:42;;;;;;;14.00;10.33;;;9.20;99.90;;;;;;4991148;28;20646;-73
2023/03/31 06:56:08;;;;;;;23.30;9.70;;;9.20;99.90;;;;;;4993076;28;20227;-74
2023/03/31 06:58:34;;;;;;;19.90;10.13;;;9.20;99.90;;;;;;4992529;28;20593;-74
2023/03/31 07:01:02;;;;;;;14.37;10.40;;;9.10;99.90;;;;;;4992741;28;20214;-73
2023/03/31 07:03:28;;;;;;;14.40;9.00;;;9.20;99.90;;;;;;4992310;28;20493;-74
2023/03/31 07:05:54;;;;;;;13.30;8.83;;;9.20;99.90;;;;;;4984752;28;20530;-74
2023/03/31 07:08:21;;;;;;;15.97;8.87;;;9.20;99.90;;;;;;4984695;28;20614;-73
2023/03/31 07:10:49;;;;;;;18.20;9.33;;;9.20;99.90;;;;;;4990545;28;20469;-73
2023/03/31 07:13:15;;;;;;;11.03;6.20;;;9.30;99.90;;;;;;4992633;28;20426;-74
2023/03/31 07:15:41;;;;;;;9.97;7.23;;;9.30;99.90;;;;;;4992989;28;20445;-73
2023/03/31 07:18:08;;;;;;;10.57;6.27;;;9.30;99.90;;;;;;4992328;28;20423;-74
2023/03/31 07:20:34;;;;;;;6.87;6.13;;;9.30;99.90;;;;;;4987098;28;20490;-72
2023/03/31 07:23:03;;;;;;;9.13;5.40;;;9.40;99.90;;;;;;4991442;28;20458;-73
2023/03/31 07:25:29;;;;;;;8.93;5.30;;;9.40;99.90;;;;;;4992360;28;20172;-74
2023/03/31 07:27:54;;;;;;;6.83;4.57;;;9.40;99.90;;;;;;4992693;28;20423;-73
2023/03/31 07:30:21;;;;;;;6.93;5.37;;;9.40;99.90;;;;;;4992057;28;20184;-73
2023/03/31 07:32:50;;;;;;;6.33;4.10;;;9.40;99.90;;;;;;4992658;28;20174;-74
2023/03/31 07:35:16;;;;;;;8.50;5.10;;;9.40;99.90;;;;;;4993075;28;20418;-74
2023/03/31 07:37:44;;;;;;;4.10;3.70;;;9.40;99.90;;;;;;4983617;28;20474;-74
2023/03/31 07:40:14;;;;;;;7.70;3.90;;;9.50;99.90;;;;;;4991815;28;20462;-74
2023/03/31 07:42:40;;;;;;;4.17;3.77;;;9.80;99.90;;;;;;4992691;28;20442;-75
2023/03/31 07:45:07;;;;;;;3.57;3.27;;;10.00;99.90;;;;;;4992638;28;20445;-74
2023/03/31 07:47:33;;;;;;;4.10;2.53;;;10.40;99.90;;;;;;4992558;28;20430;-75
2023/03/31 07:49:58;;;;;;;3.37;2.27;;;10.70;99.90;;;;;;4990578;28;20447;-74
2023/03/31 07:52:24;;;;;;;3.17;2.30;;;10.70;99.90;;;;;;4991903;28;20182;-74
2023/03/31 07:54:50;;;;;;;2.07;1.87;;;10.80;99.90;;;;;;4991168;28;20193;-74
2023/03/31 07:57:18;;;;;;;2.63;2.00;;;11.00;99.90;;;;;;4992657;28;20180;-74
2023/03/31 07:59:44;;;;;;;2.53;1.83;;;11.00;99.90;;;;;;4991675;28;20596;-75
2023/03/31 08:02:12;;;;;;;2.80;1.40;;;10.90;99.90;;;;;;4992620;28;20458;-74
2023/03/31 08:04:37;;;;;;;2.20;1.73;;;11.00;99.90;;;;;;4992488;28;20849;-74
2023/03/31 08:07:03;;;;;;;2.27;1.90;;;11.00;99.90;;;;;;4988586;28;20518;-74
2023/03/31 08:09:29;;;;;;;2.30;1.67;;;11.20;99.90;;;;;;4986752;28;20286;-73
2023/03/31 08:11:55;;;;;;;2.90;1.37;;;11.50;99.90;;;;;;4992415;28;20506;-74
2023/03/31 08:14:20;;;;;;;2.07;1.70;;;11.90;99.90;;;;;;4992337;28;20661;-73
2023/03/31 08:16:46;;;;;;;2.30;1.43;;;12.20;99.90;;;;;;4992389;28;20202;-74
2023/03/31 08:19:11;;;;;;;4.60;1.60;;;12.40;99.90;;;;;;4991523;28;20219;-74
2023/03/31 08:21:37;;;;;;;1.40;1.30;;;12.60;99.90;;;;;;4992064;28;20175;-74
2023/03/31 08:24:02;;;;;;;4.87;1.40;;;12.80;99.90;;;;;;4988641;28;20200;-74
2023/03/31 08:26:28;;;;;;;3.20;1.53;;;13.10;99.90;;;;;;4987174;28;20250;-73
2023/03/31 08:28:57;;;;;;;3.67;1.57;;;13.40;99.90;;;;;;4991397;28;20203;-73
2023/03/31 08:31:24;;;;;;;2.20;1.70;;;13.60;99.90;;;;;;4992219;28;20947;-74
2023/03/31 08:33:50;;;;;;;3.00;1.77;;;13.90;99.90;;;;;;4992216;28;21047;-73
2023/03/31 08:36:16;;;;;;;2.93;1.87;;;14.20;99.90;;;;;;4992247;28;20505;-73
2023/03/31 08:38:46;;;;;;;2.70;1.57;;;14.30;99.90;;;;;;4991413;28;20549;-74
2023/03/31 08:41:46;;;;;;;1.90;1.60;;;14.50;99.90;;;;;;4986927;28;20203;-74
2023/03/31 08:44:21;;;;;;;1.80;1.50;;;14.80;99.90;;;;;;4989017;28;20465;-73
2023/03/31 08:46:51;;;;;;;2.10;1.30;;;15.00;99.90;;;;;;4991990;28;20422;-74
2023/03/31 08:49:19;;;;;;;2.33;1.60;;;15.10;99.90;;;;;;4990965;28;20448;-75
2023/03/31 08:51:52;;;;;;;2.97;1.73;;;15.30;99.90;;;;;;4991322;28;20470;-73
2023/03/31 08:54:32;;;;;;;2.47;1.63;;;15.40;99.90;;;;;;4991976;28;20430;-74
2023/03/31 08:56:59;;;;;;;2.13;1.70;;;15.70;99.90;;;;;;4989265;28;20525;-74
2023/03/31 08:59:36;;;;;;;4.03;2.23;;;16.00;99.90;;;;;;4990612;28;20486;-73
2023/03/31 09:02:20;;;;;;;5.10;2.53;;;16.20;99.90;;;;;;4995473;28;20429;-74
2023/03/31 09:04:55;;;;;;;2.90;1.80;;;16.90;99.90;;;;;;4994958;28;20933;-74
2023/03/31 09:07:52;;;;;;;2.97;2.00;;;16.80;99.90;;;;;;4994893;28;20472;-73
2023/03/31 09:10:42;;;;;;;2.40;1.83;;;16.70;99.90;;;;;;4992957;28;20472;-74
2023/03/31 09:13:48;;;;;;;4.20;2.87;;;16.90;99.90;;;;;;4995325;28;20477;-74
2023/03/31 09:16:23;;;;;;;2.93;1.37;;;16.90;99.90;;;;;;4995071;28;20421;-73
2023/03/31 09:18:51;;;;;;;2.40;1.83;;;17.30;99.90;;;;;;4994278;28;20481;-74
2023/03/31 09:21:22;;;;;;;4.80;1.70;;;17.30;99.90;;;;;;4994693;28;20514;-73
2023/03/31 09:23:58;;;;;;;1.63;1.30;;;17.80;99.90;;;;;;4995202;28;20429;-73
2023/03/31 09:26:27;;;;;;;2.80;1.90;;;17.80;99.90;;;;;;4994751;28;20517;-73
2023/03/31 09:28:56;;;;;;;6.93;2.10;;;17.30;99.90;;;;;;4994513;28;20493;-73
2023/03/31 09:31:22;;;;;;;3.10;1.70;;;16.60;99.90;;;;;;4994523;28;20427;-73
2023/03/31 09:33:51;;;;;;;2.73;1.77;;;16.10;99.90;;;;;;4994666;28;20505;-73
2023/03/31 09:36:21;;;;;;;3.30;2.00;;;15.80;99.90;;;;;;4994097;28;20439;-74
2023/03/31 09:38:47;;;;;;;1.83;1.70;;;15.30;99.90;;;;;;4994101;28;20434;-73
2023/03/31 09:41:15;;;;;;;5.13;1.70;;;15.00;99.90;;;;;;4994800;28;20461;-74
2023/03/31 09:43:41;;;;;;;3.20;1.60;;;14.60;99.90;;;;;;4984411;28;20438;-74
2023/03/31 09:46:32;;;;;;;2.07;1.83;;;14.60;99.90;;;;;;4986208;28;20506;-75
2023/03/31 09:49:05;;;;;;;2.60;1.43;;;14.40;99.90;;;;;;4990690;28;20415;-74
2023/03/31 09:51:36;;;;;;;2.13;1.90;;;14.70;99.90;;;;;;4994687;28;20557;-73
2023/03/31 09:54:23;;;;;;;2.33;1.43;;;15.80;99.90;;;;;;4994268;28;20481;-73
2023/03/31 09:56:53;;;;;;;6.13;1.90;;;16.80;99.90;;;;;;4991078;28;20442;-73
2023/03/31 09:59:21;;;;;;;3.07;1.60;;;17.20;99.90;;;;;;4991733;28;20831;-70
2023/03/31 10:01:50;;;;;;;2.20;1.70;;;17.80;99.90;;;;;;4994096;28;20921;-70
2023/03/31 10:04:26;;;;;;;2.20;1.87;;;17.90;99.90;;;;;;4994054;28;20423;-72
2023/03/31 10:06:54;;;;;;;3.47;1.60;;;18.10;99.90;;;;;;4991662;28;20431;-72
2023/03/31 10:09:41;;;;;;;3.40;1.63;;;18.10;99.90;;;;;;4992208;28;20462;-72
2023/03/31 10:12:21;;;;;;;2.70;1.57;;;18.60;99.90;;;;;;4993720;28;20516;-75
2023/03/31 10:14:48;;;;;;;3.67;1.63;;;18.90;99.90;;;;;;4990584;28;20818;-74
2023/03/31 10:17:21;;;;;;;2.47;1.80;;;18.60;99.90;;;;;;4993855;28;20477;-75
2023/03/31 10:19:53;;;;;;;4.10;1.93;;;19.20;99.80;;;;;;4990896;28;20467;-75
2023/03/31 10:22:21;;;;;;;4.70;2.50;;;20.00;97.50;;;;;;4994107;28;20427;-75
2023/03/31 10:24:49;;;;;;;6.67;1.73;;;21.10;93.00;;;;;;4993089;28;20800;-71
2023/03/31 10:27:29;;;;;;;3.10;2.10;;;20.20;91.90;;;;;;4993775;28;20426;-70
2023/03/31 10:30:00;;;;;;;5.90;2.13;;;19.70;93.90;;;;;;4993064;28;20477;-70
2023/03/31 10:32:27;;;;;;;5.50;2.07;;;19.40;94.60;;;;;;4993008;28;20859;-70
2023/03/31 10:34:58;;;;;;;3.93;2.23;;;19.30;95.50;;;;;;4993473;28;20422;-70
2023/03/31 10:37:27;;;;;;;5.40;1.80;;;20.10;94.40;;;;;;4990720;28;20442;-69
2023/03/31 10:40:27;;;;;;;5.27;2.60;;;20.40;90.40;;;;;;4991708;28;20479;-74
2023/03/31 10:43:17;;;;;;;3.60;1.77;;;19.50;91.00;;;;;;4961706;28;20937;-75
2023/03/31 10:45:57;;;;;;;8.33;2.50;;;18.90;92.00;;;;;;4993574;28;20410;-74
2023/03/31 10:48:26;;;;;;;8.63;2.03;;;18.10;92.10;;;;;;4987302;28;20492;-74
2023/03/31 10:50:57;;;;;;;4.60;3.20;;;17.60;94.20;;;;;;4992689;28;20459;-74
2023/03/31 10:53:22;;;;;;;7.60;2.50;;;17.60;94.90;;;;;;4992391;28;20974;-74
2023/03/31 10:56:07;;;;;;;4.67;2.60;;;18.00;95.20;;;;;;4992880;28;20427;-74
2023/03/31 10:58:43;;;;;;;3.80;1.80;;;18.70;92.50;;;;;;4992801;28;20183;-74
2023/03/31 11:01:32;;;;;;;4.63;1.90;;;18.50;88.30;;;;;;4992186;28;21062;-73
2023/03/31 11:04:06;;;;;;;2.80;1.63;;;17.90;90.30;;;;;;4984973;28;20431;-73
2023/03/31 11:07:09;;;;;;;3.73;2.10;;;17.50;92.30;;;;;;4993239;28;20422;-73
2023/03/31 11:09:51;;;;;;;3.77;1.73;;;17.30;93.70;;;;;;4992629;28;20458;-73
2023/03/31 11:12:38;;;;;;;4.23;2.07;;;17.50;92.90;;;;;;4993098;28;20445;-73
2023/03/31 11:15:16;;;;;;;4.57;1.77;;;17.10;97.30;;;;;;4992473;28;20431;-72
2023/03/31 11:18:09;;;;;;;3.90;2.40;;;16.10;99.90;;;;;;4984739;28;20430;-73
2023/03/31 11:21:13;;;;;;;4.47;1.77;;;14.80;99.90;;;;;;4992484;28;20469;-72
2023/03/31 11:23:50;;;;;;;2.50;1.20;;;13.40;99.90;;;;;;4993027;28;20421;-73
2023/03/31 11:26:49;;;;;;;4.10;1.30;;;11.80;99.90;;;;;;4992867;28;20423;-72
2023/03/31 11:29:23;;;;;;;3.07;0.80;;;10.70;99.90;;;;;;4971688;28;20455;-73
2023/03/31 11:31:49;;;;;;;2.67;1.30;;;10.20;99.90;;;;;;4982985;28;21039;-72
2023/03/31 11:34:28;;;;;;;1.23;1.10;;;10.00;99.90;;;;;;4992051;28;20418;-72
2023/03/31 11:37:14;;;;;;;2.23;0.80;;;9.80;99.90;;;;;;4992749;28;20943;-73
2023/03/31 11:39:51;;;;;;;1.27;0.77;;;9.70;99.90;;;;;;4972079;28;20491;-72
2023/03/31 11:42:35;;;;;;;5.70;1.07;;;9.60;99.90;;;;;;4972964;28;20431;-73
2023/03/31 11:45:19;;;;;;;1.20;1.03;;;9.50;99.90;;;;;;4979146;28;20819;-73
2023/03/31 11:47:49;;;;;;;1.87;0.70;;;9.40;99.90;;;;;;4991899;28;20426;-72
2023/03/31 11:50:26;;;;;;;2.73;0.80;;;9.40;99.90;;;;;;4991692;28;20470;-72
2023/03/31 11:52:57;;;;;;;4.00;1.10;;;9.50;99.90;;;;;;4992440;28;20422;-72
2023/03/31 11:55:27;;;;;;;4.27;1.00;;;9.80;99.90;;;;;;4992263;28;20429;-73
2023/03/31 11:58:08;;;;;;;1.67;0.50;;;10.10;99.90;;;;;;4986546;28;20445;-72
2023/03/31 12:00:37;;;;;;;3.60;0.70;;;10.70;99.90;;;;;;4983825;28;20542;-72
2023/03/31 12:03:32;;;;;;;1.00;0.87;;;12.50;99.90;;;;;;4990607;28;20535;-72
2023/03/31 12:06:02;;;;;;;1.07;0.97;;;15.50;99.90;;;;;;4991550;28;20430;-72
2023/03/31 12:08:30;;;;;;;2.10;1.10;;;17.60;99.90;;;;;;4990733;28;20785;-72
2023/03/31 12:11:09;;;;;;;1.43;1.00;;;19.00;99.90;;;;;;4989172;28;20467;-72
2023/03/31 12:13:52;;;;;;;1.23;1.13;;;19.80;99.90;;;;;;4989358;28;20462;-72
2023/03/31 12:16:44;;;;;;;1.83;1.00;;;18.60;99.90;;;;;;4985229;28;20434;-72
2023/03/31 12:19:31;;;;;;;1.00;0.90;;;17.10;99.90;;;;;;4979754;28;20485;-73
2023/03/31 12:22:09;;;;;;;2.83;0.90;;;16.90;99.90;;;;;;4988972;28;20450;-73
2023/03/31 12:24:35;;;;;;;1.30;0.90;;;16.50;99.90;;;;;;4990743;28;20775;-73
2023/03/31 12:27:04;;;;;;;1.53;0.80;;;16.90;99.90;;;;;;4988014;28;20482;-73
2023/03/31 12:29:31;;;;;;;3.13;1.30;;;17.70;99.90;;;;;;4989136;28;20505;-73
2023/03/31 12:32:02;;;;;;;1.57;1.10;;;18.90;99.90;;;;;;4991343;28;20470;-75
2023/03/31 12:34:29;;;;;;;1.40;0.70;;;18.70;99.90;;;;;;4992726;28;20446;-74
2023/03/31 12:37:24;;;;;;;1.20;1.10;;;17.90;99.90;;;;;;4990986;28;20567;-73
2023/03/31 12:40:22;;;;;;;1.33;0.83;;;19.10;99.90;;;;;;4987932;28;20491;-74
2023/03/31 12:43:10;;;;;;;1.83;0.73;;;20.50;96.10;;;;;;4989755;28;20441;-74
2023/03/31 12:45:41;;;;;;;0.90;0.90;;;21.00;93.00;;;;;;4991004;28;20480;-73
2023/03/31 12:48:09;;;;;;;2.30;0.93;;;21.30;92.00;;;;;;4987172;28;20438;-73
2023/03/31 12:50:50;;;;;;;2.00;1.90;;;21.90;90.70;;;;;;4993444;28;20461;-73
2023/03/31 12:53:43;;;;;;;1.70;1.10;;;22.10;87.70;;;;;;4993733;28;20513;-73
2023/03/31 12:56:08;;;;;;;2.13;1.43;;;22.90;81.40;;;;;;4991353;28;20513;-73
2023/03/31 12:58:42;;;;;;;1.20;1.00;;;22.30;81.40;;;;;;4992907;28;20546;-73
2023/03/31 13:01:15;;;;;;;3.03;1.30;;;21.20;82.00;;;;;;4991182;28;20225;-73
2023/03/31 13:03:51;;;;;;;2.20;0.93;;;20.10;88.00;;;;;;4992606;28;20493;-73
2023/03/31 13:06:29;;;;;;;3.83;1.30;;;19.10;90.10;;;;;;4994412;28;20490;-74
2023/03/31 13:09:04;;;;;;;1.30;1.10;;;17.80;94.40;;;;;;4991391;28;20954;-73
2023/03/31 13:11:36;;;;;;;3.70;1.67;;;16.80;99.10;;;;;;4993512;28;20442;-70
2023/03/31 13:14:05;;;;;;;4.13;1.90;;;15.80;99.90;;;;;;4994122;28;20458;-73